sensor_id;sensor_type;location;lat;lon;timestamp;temperature;humidity
30336;DHT22;17142;47.990;7.846;2023-08-31T00:01:00;14.20;99.90
30336;DHT22;17142;47.990;7.846;2023-08-31T00:03:26;14.10;99.90
30336;DHT22;17142;47.990;7.846;2023-08-31T00:05:52;14.10;99.90
30336;DHT22;17142;47.990;7.846;2023-08-31T00:08:17;14.10;99.90
30336;DHT22;17142;47.990;7.846;2023-08-31T00:10:43;14.10;99.90
30336;DHT22;17142;47.990;7.846;2023-08-31T00:13:09;14.10;99.90
30336;DHT22;17142;47.990;7.846;2023-08-31T00:15:34;14.10;99.90
30336;DHT22;17142;47.990;7.846;2023-08-31T00:18:02;14.10;99.90
30336;DHT22;17142;47.990;7.846;2023-08-31T00:20:31;14.00;99.90
30336;DHT22;17142;47.990;7.846;2023-08-31T00:22:58;14.00;99.90
30336;DHT22;17142;47.990;7.846;2023-08-31T00:25:24;14.00;99.90
30336;DHT22;17142;47.990;7.846;2023-08-31T00:27:50;14.00;99.90
30336;DHT22;17142;47.990;7.846;2023-08-31T00:30:17;14.10;99.90
30336;DHT22;17142;47.990;7.846;2023-08-31T00:32:43;14.10;99.90
30336;DHT22;17142;47.990;7.846;2023-08-31T00:35:09;14.10;99.90
30336;DHT22;17142;47.990;7.846;2023-08-31T00:37:35;14.10;99.90
30336;DHT22;17142;47.990;7.846;2023-08-31T00:40:07;14.00;99.90
30336;DHT22;17142;47.990;7.846;2023-08-31T00:42:34;14.00;99.90
30336;DHT22;17142;47.990;7.846;2023-08-31T00:44:59;14.00;99.90
30336;DHT22;17142;47.990;7.846;2023-08-31T00:47:25;14.00;99.90
30336;DHT22;17142;47.990;7.846;2023-08-31T00:49:51;14.00;99.90
30336;DHT22;17142;47.990;7.846;2023-08-31T00:52:17;14.00;99.90
30336;DHT22;17142;47.990;7.846;2023-08-31T00:54:45;13.90;99.90
30336;DHT22;17142;47.990;7.846;2023-08-31T00:57:13;14.00;99.90
30336;DHT22;17142;47.990;7.846;2023-08-31T00:59:41;14.00;99.90
30336;DHT22;17142;47.990;7.846;2023-08-31T01:02:19;13.90;99.90
30336;DHT22;17142;47.990;7.846;2023-08-31T01:11:19;13.90;99.90
30336;DHT22;17142;47.990;7.846;2023-08-31T01:13:52;13.90;99.90
30336;DHT22;17142;47.990;7.846;2023-08-31T01:16:22;13.90;99.90
30336;DHT22;17142;47.990;7.846;2023-08-31T01:18:50;13.90;99.90
30336;DHT22;17142;47.990;7.846;2023-08-31T01:21:23;13.90;99.90
30336;DHT22;17142;47.990;7.846;2023-08-31T01:23:55;13.90;99.90
30336;DHT22;17142;47.990;7.846;2023-08-31T01:26:22;13.90;99.90
30336;DHT22;17142;47.990;7.846;2023-08-31T01:28:51;13.90;99.90
30336;DHT22;17142;47.990;7.846;2023-08-31T01:31:17;13.90;99.90
30336;DHT22;17142;47.990;7.846;2023-08-31T01:33:43;13.90;99.90
30336;DHT22;17142;47.990;7.846;2023-08-31T01:36:19;13.90;99.90
30336;DHT22;17142;47.990;7.846;2023-08-31T01:38:50;13.90;99.90
30336;DHT22;17142;47.990;7.846;2023-08-31T01:41:19;13.90;99.90
30336;DHT22;17142;47.990;7.846;2023-08-31T01:43:46;13.90;99.90
30336;DHT22;17142;47.990;7.846;2023-08-31T01:46:13;13.90;99.90
30336;DHT22;17142;47.990;7.846;2023-08-31T01:48:39;13.90;99.90
30336;DHT22;17142;47.990;7.846;2023-08-31T01:51:09;13.90;99.90
30336;DHT22;17142;47.990;7.846;2023-08-31T01:53:38;13.90;99.90
30336;DHT22;17142;47.990;7.846;2023-08-31T01:56:04;13.90;99.90
30336;DHT22;17142;47.990;7.846;2023-08-31T01:58:30;13.90;99.90
30336;DHT22;17142;47.990;7.846;2023-08-31T02:00:55;13.90;99.90
30336;DHT22;17142;47.990;7.846;2023-08-31T02:03:22;14.00;99.90
30336;DHT22;17142;47.990;7.846;2023-08-31T02:05:47;14.00;99.90
30336;DHT22;17142;47.990;7.846;2023-08-31T02:08:13;13.90;99.90
30336;DHT22;17142;47.990;7.846;2023-08-31T02:10:43;13.90;99.90
30336;DHT22;17142;47.990;7.846;2023-08-31T02:13:14;13.90;99.90
30336;DHT22;17142;47.990;7.846;2023-08-31T02:15:41;13.90;99.90
30336;DHT22;17142;47.990;7.846;2023-08-31T02:18:07;13.90;99.90
30336;DHT22;17142;47.990;7.846;2023-08-31T02:20:33;13.90;99.90
30336;DHT22;17142;47.990;7.846;2023-08-31T02:23:01;13.90;99.90
30336;DHT22;17142;47.990;7.846;2023-08-31T02:25:27;13.90;99.90
30336;DHT22;17142;47.990;7.846;2023-08-31T02:27:54;13.90;99.90
30336;DHT22;17142;47.990;7.846;2023-08-31T02:30:19;13.80;99.90
30336;DHT22;17142;47.990;7.846;2023-08-31T02:32:50;13.80;99.90
30336;DHT22;17142;47.990;7.846;2023-08-31T02:35:18;13.80;99.90
30336;DHT22;17142;47.990;7.846;2023-08-31T02:37:46;13.80;99.90
30336;DHT22;17142;47.990;7.846;2023-08-31T02:40:11;13.80;99.90
30336;DHT22;17142;47.990;7.846;2023-08-31T02:42:37;13.80;99.90
30336;DHT22;17142;47.990;7.846;2023-08-31T02:45:03;13.80;99.90
30336;DHT22;17142;47.990;7.846;2023-08-31T02:47:29;13.80;99.90
30336;DHT22;17142;47.990;7.846;2023-08-31T02:49:55;13.80;99.90
30336;DHT22;17142;47.990;7.846;2023-08-31T02:52:23;13.80;99.90
30336;DHT22;17142;47.990;7.846;2023-08-31T02:54:50;13.80;99.90
30336;DHT22;17142;47.990;7.846;2023-08-31T02:57:17;13.80;99.90
30336;DHT22;17142;47.990;7.846;2023-08-31T02:59:52;13.80;99.90
30336;DHT22;17142;47.990;7.846;2023-08-31T03:02:17;13.80;99.90
30336;DHT22;17142;47.990;7.846;2023-08-31T03:04:45;13.80;99.90
30336;DHT22;17142;47.990;7.846;2023-08-31T03:07:11;13.80;99.90
30336;DHT22;17142;47.990;7.846;2023-08-31T03:09:39;13.90;99.90
30336;DHT22;17142;47.990;7.846;2023-08-31T03:12:05;13.90;99.90
30336;DHT22;17142;47.990;7.846;2023-08-31T03:14:31;13.90;99.90
30336;DHT22;17142;47.990;7.846;2023-08-31T03:16:56;13.90;99.90
30336;DHT22;17142;47.990;7.846;2023-08-31T03:19:22;14.00;99.90
30336;DHT22;17142;47.990;7.846;2023-08-31T03:21:50;14.00;99.90
30336;DHT22;17142;47.990;7.846;2023-08-31T03:24:16;13.90;99.90
30336;DHT22;17142;47.990;7.846;2023-08-31T03:26:44;13.90;99.90
30336;DHT22;17142;47.990;7.846;2023-08-31T03:29:09;13.90;99.90
30336;DHT22;17142;47.990;7.846;2023-08-31T03:31:37;13.90;99.90
30336;DHT22;17142;47.990;7.846;2023-08-31T03:34:03;13.90;99.90
30336;DHT22;17142;47.990;7.846;2023-08-31T03:36:28;14.00;99.90
30336;DHT22;17142;47.990;7.846;2023-08-31T03:38:54;14.00;99.90
30336;DHT22;17142;47.990;7.846;2023-08-31T03:41:20;14.00;99.90
30336;DHT22;17142;47.990;7.846;2023-08-31T03:43:45;14.00;99.90
30336;DHT22;17142;47.990;7.846;2023-08-31T03:46:11;14.00;99.90
30336;DHT22;17142;47.990;7.846;2023-08-31T03:48:37;14.00;99.90
30336;DHT22;17142;47.990;7.846;2023-08-31T03:51:02;14.00;99.90
30336;DHT22;17142;47.990;7.846;2023-08-31T03:53:29;14.00;99.90
30336;DHT22;17142;47.990;7.846;2023-08-31T03:55:57;14.00;99.90
30336;DHT22;17142;47.990;7.846;2023-08-31T03:58:25;14.00;99.90
30336;DHT22;17142;47.990;7.846;2023-08-31T04:00:51;14.00;99.90
30336;DHT22;17142;47.990;7.846;2023-08-31T04:03:16;14.00;99.90
30336;DHT22;17142;47.990;7.846;2023-08-31T04:05:42;14.00;99.90
30336;DHT22;17142;47.990;7.846;2023-08-31T04:08:07;14.10;99.90
30336;DHT22;17142;47.990;7.846;2023-08-31T04:10:33;14.10;99.90
30336;DHT22;17142;47.990;7.846;2023-08-31T04:12:59;14.10;99.90
30336;DHT22;17142;47.990;7.846;2023-08-31T04:15:25;14.00;99.90
30336;DHT22;17142;47.990;7.846;2023-08-31T04:17:50;14.00;99.90
30336;DHT22;17142;47.990;7.846;2023-08-31T04:20:16;14.00;99.90
30336;DHT22;17142;47.990;7.846;2023-08-31T04:22:44;14.00;99.90
30336;DHT22;17142;47.990;7.846;2023-08-31T04:25:12;14.00;99.90
30336;DHT22;17142;47.990;7.846;2023-08-31T04:27:37;14.00;99.90
30336;DHT22;17142;47.990;7.846;2023-08-31T04:30:05;14.00;99.90
30336;DHT22;17142;47.990;7.846;2023-08-31T04:32:32;14.10;99.90
30336;DHT22;17142;47.990;7.846;2023-08-31T04:34:58;14.10;99.90
30336;DHT22;17142;47.990;7.846;2023-08-31T04:37:24;14.00;99.90
30336;DHT22;17142;47.990;7.846;2023-08-31T04:39:52;14.00;99.90
30336;DHT22;17142;47.990;7.846;2023-08-31T04:42:17;14.00;99.90
30336;DHT22;17142;47.990;7.846;2023-08-31T04:44:43;13.90;99.90
30336;DHT22;17142;47.990;7.846;2023-08-31T04:47:09;14.00;99.90
30336;DHT22;17142;47.990;7.846;2023-08-31T04:49:34;14.00;99.90
30336;DHT22;17142;47.990;7.846;2023-08-31T04:52:00;14.00;99.90
30336;DHT22;17142;47.990;7.846;2023-08-31T04:54:26;14.00;99.90
30336;DHT22;17142;47.990;7.846;2023-08-31T04:56:51;13.90;99.90
30336;DHT22;17142;47.990;7.846;2023-08-31T04:59:17;13.90;99.90
30336;DHT22;17142;47.990;7.846;2023-08-31T05:01:45;13.90;99.90
30336;DHT22;17142;47.990;7.846;2023-08-31T05:04:13;13.90;99.90
30336;DHT22;17142;47.990;7.846;2023-08-31T05:06:39;13.90;99.90
30336;DHT22;17142;47.990;7.846;2023-08-31T05:09:06;14.00;99.90
30336;DHT22;17142;47.990;7.846;2023-08-31T05:11:35;13.90;99.90
30336;DHT22;17142;47.990;7.846;2023-08-31T05:14:00;14.00;99.90
30336;DHT22;17142;47.990;7.846;2023-08-31T05:16:26;14.00;99.90
30336;DHT22;17142;47.990;7.846;2023-08-31T05:18:52;14.10;99.90
30336;DHT22;17142;47.990;7.846;2023-08-31T05:21:17;14.20;99.90
30336;DHT22;17142;47.990;7.846;2023-08-31T05:23:46;14.20;99.90
30336;DHT22;17142;47.990;7.846;2023-08-31T05:26:11;14.20;99.90
30336;DHT22;17142;47.990;7.846;2023-08-31T05:28:37;14.30;99.90
30336;DHT22;17142;47.990;7.846;2023-08-31T05:31:03;14.30;99.90
30336;DHT22;17142;47.990;7.846;2023-08-31T05:33:32;14.40;99.90
30336;DHT22;17142;47.990;7.846;2023-08-31T05:36:01;14.40;99.90
30336;DHT22;17142;47.990;7.846;2023-08-31T05:38:29;14.40;99.90
30336;DHT22;17142;47.990;7.846;2023-08-31T05:41:12;14.50;99.90
30336;DHT22;17142;47.990;7.846;2023-08-31T05:43:37;14.60;99.90
30336;DHT22;17142;47.990;7.846;2023-08-31T05:46:06;14.80;99.90
30336;DHT22;17142;47.990;7.846;2023-08-31T05:48:35;14.80;99.90
30336;DHT22;17142;47.990;7.846;2023-08-31T05:51:04;14.80;99.90
30336;DHT22;17142;47.990;7.846;2023-08-31T05:53:30;14.90;99.90
30336;DHT22;17142;47.990;7.846;2023-08-31T05:55:59;15.00;99.90
30336;DHT22;17142;47.990;7.846;2023-08-31T05:58:36;15.00;99.90
30336;DHT22;17142;47.990;7.846;2023-08-31T06:01:05;15.20;99.90
30336;DHT22;17142;47.990;7.846;2023-08-31T06:03:33;15.40;99.90
30336;DHT22;17142;47.990;7.846;2023-08-31T06:06:01;15.70;99.90
30336;DHT22;17142;47.990;7.846;2023-08-31T06:08:27;16.10;99.90
30336;DHT22;17142;47.990;7.846;2023-08-31T06:10:53;17.10;99.90
30336;DHT22;17142;47.990;7.846;2023-08-31T06:13:19;18.20;99.90
30336;DHT22;17142;47.990;7.846;2023-08-31T06:15:47;18.50;99.90
30336;DHT22;17142;47.990;7.846;2023-08-31T06:18:12;18.60;99.90
30336;DHT22;17142;47.990;7.846;2023-08-31T06:20:38;18.80;99.90
30336;DHT22;17142;47.990;7.846;2023-08-31T06:23:04;19.00;99.90
30336;DHT22;17142;47.990;7.846;2023-08-31T06:25:30;19.20;99.90
30336;DHT22;17142;47.990;7.846;2023-08-31T06:27:55;19.80;99.90
30336;DHT22;17142;47.990;7.846;2023-08-31T06:30:21;20.00;99.90
30336;DHT22;17142;47.990;7.846;2023-08-31T06:32:49;20.50;99.90
30336;DHT22;17142;47.990;7.846;2023-08-31T06:35:17;20.80;99.90
30336;DHT22;17142;47.990;7.846;2023-08-31T06:37:43;21.00;99.90
30336;DHT22;17142;47.990;7.846;2023-08-31T06:40:10;20.70;99.90
30336;DHT22;17142;47.990;7.846;2023-08-31T06:42:36;21.20;99.90
30336;DHT22;17142;47.990;7.846;2023-08-31T06:45:07;21.70;99.90
30336;DHT22;17142;47.990;7.846;2023-08-31T06:47:33;21.50;99.90
30336;DHT22;17142;47.990;7.846;2023-08-31T06:50:01;21.60;99.90
30336;DHT22;17142;47.990;7.846;2023-08-31T06:52:29;21.60;99.90
30336;DHT22;17142;47.990;7.846;2023-08-31T06:54:57;21.40;99.90
30336;DHT22;17142;47.990;7.846;2023-08-31T06:57:25;21.50;99.90
30336;DHT22;17142;47.990;7.846;2023-08-31T06:59:53;21.80;99.90
30336;DHT22;17142;47.990;7.846;2023-08-31T07:02:19;22.60;99.90
30336;DHT22;17142;47.990;7.846;2023-08-31T07:04:47;22.30;99.90
30336;DHT22;17142;47.990;7.846;2023-08-31T07:07:14;22.20;99.90
30336;DHT22;17142;47.990;7.846;2023-08-31T07:09:46;22.60;99.90
30336;DHT22;17142;47.990;7.846;2023-08-31T07:12:12;22.40;99.90
30336;DHT22;17142;47.990;7.846;2023-08-31T07:14:38;22.70;99.90
30336;DHT22;17142;47.990;7.846;2023-08-31T07:17:04;22.90;99.90
30336;DHT22;17142;47.990;7.846;2023-08-31T07:19:30;23.30;99.90
30336;DHT22;17142;47.990;7.846;2023-08-31T07:21:58;23.50;99.70
30336;DHT22;17142;47.990;7.846;2023-08-31T07:24:25;23.20;99.30
30336;DHT22;17142;47.990;7.846;2023-08-31T07:26:50;22.70;99.10
30336;DHT22;17142;47.990;7.846;2023-08-31T07:29:16;22.80;99.60
30336;DHT22;17142;47.990;7.846;2023-08-31T07:31:42;23.10;99.60
30336;DHT22;17142;47.990;7.846;2023-08-31T07:34:07;23.00;98.70
30336;DHT22;17142;47.990;7.846;2023-08-31T07:36:35;22.70;97.90
30336;DHT22;17142;47.990;7.846;2023-08-31T07:39:01;22.20;98.40
30336;DHT22;17142;47.990;7.846;2023-08-31T07:41:31;22.10;98.50
30336;DHT22;17142;47.990;7.846;2023-08-31T07:43:56;22.30;99.00
30336;DHT22;17142;47.990;7.846;2023-08-31T07:46:24;22.40;98.90
30336;DHT22;17142;47.990;7.846;2023-08-31T07:48:49;22.80;99.00
30336;DHT22;17142;47.990;7.846;2023-08-31T07:51:16;23.00;98.20
30336;DHT22;17142;47.990;7.846;2023-08-31T07:53:42;22.70;97.40
30336;DHT22;17142;47.990;7.846;2023-08-31T07:56:07;22.70;98.30
30336;DHT22;17142;47.990;7.846;2023-08-31T07:58:33;22.70;98.30
30336;DHT22;17142;47.990;7.846;2023-08-31T08:00:58;22.40;98.50
30336;DHT22;17142;47.990;7.846;2023-08-31T08:03:24;21.80;98.20
30336;DHT22;17142;47.990;7.846;2023-08-31T08:05:51;21.60;98.90
30336;DHT22;17142;47.990;7.846;2023-08-31T08:08:19;21.70;99.40
30336;DHT22;17142;47.990;7.846;2023-08-31T08:10:46;21.90;98.30
30336;DHT22;17142;47.990;7.846;2023-08-31T08:13:14;21.80;97.80
30336;DHT22;17142;47.990;7.846;2023-08-31T08:15:42;21.70;98.20
30336;DHT22;17142;47.990;7.846;2023-08-31T08:18:08;22.10;96.90
30336;DHT22;17142;47.990;7.846;2023-08-31T08:20:33;22.20;96.10
30336;DHT22;17142;47.990;7.846;2023-08-31T08:23:02;22.40;95.30
30336;DHT22;17142;47.990;7.846;2023-08-31T08:25:27;22.20;94.70
30336;DHT22;17142;47.990;7.846;2023-08-31T08:27:53;22.60;94.20
30336;DHT22;17142;47.990;7.846;2023-08-31T08:30:19;22.70;93.20
30336;DHT22;17142;47.990;7.846;2023-08-31T08:32:44;22.30;89.00
30336;DHT22;17142;47.990;7.846;2023-08-31T08:35:10;21.90;90.50
30336;DHT22;17142;47.990;7.846;2023-08-31T08:37:36;22.20;87.20
30336;DHT22;17142;47.990;7.846;2023-08-31T08:40:02;22.70;85.90
30336;DHT22;17142;47.990;7.846;2023-08-31T08:42:30;22.20;79.30
30336;DHT22;17142;47.990;7.846;2023-08-31T08:44:57;21.90;76.70
30336;DHT22;17142;47.990;7.846;2023-08-31T08:47:26;21.50;75.10
30336;DHT22;17142;47.990;7.846;2023-08-31T08:49:53;21.20;78.10
30336;DHT22;17142;47.990;7.846;2023-08-31T08:52:21;21.10;78.40
30336;DHT22;17142;47.990;7.846;2023-08-31T08:54:47;21.30;81.20
30336;DHT22;17142;47.990;7.846;2023-08-31T08:57:14;20.90;82.10
30336;DHT22;17142;47.990;7.846;2023-08-31T08:59:40;21.20;84.30
30336;DHT22;17142;47.990;7.846;2023-08-31T09:02:08;21.20;85.90
30336;DHT22;17142;47.990;7.846;2023-08-31T09:04:35;21.30;89.60
30336;DHT22;17142;47.990;7.846;2023-08-31T09:07:03;21.20;87.90
30336;DHT22;17142;47.990;7.846;2023-08-31T09:09:29;21.40;87.60
30336;DHT22;17142;47.990;7.846;2023-08-31T09:11:54;21.40;89.60
30336;DHT22;17142;47.990;7.846;2023-08-31T09:14:23;21.40;89.10
30336;DHT22;17142;47.990;7.846;2023-08-31T09:16:50;21.50;90.50
30336;DHT22;17142;47.990;7.846;2023-08-31T09:19:23;21.60;88.80
30336;DHT22;17142;47.990;7.846;2023-08-31T09:21:55;21.60;88.60
30336;DHT22;17142;47.990;7.846;2023-08-31T09:24:22;21.70;90.20
30336;DHT22;17142;47.990;7.846;2023-08-31T09:26:58;21.70;90.10
30336;DHT22;17142;47.990;7.846;2023-08-31T09:29:24;21.70;90.20
30336;DHT22;17142;47.990;7.846;2023-08-31T09:31:50;21.80;90.50
30336;DHT22;17142;47.990;7.846;2023-08-31T09:34:19;22.00;91.00
30336;DHT22;17142;47.990;7.846;2023-08-31T09:36:45;22.10;91.70
30336;DHT22;17142;47.990;7.846;2023-08-31T09:39:15;22.20;91.10
30336;DHT22;17142;47.990;7.846;2023-08-31T09:41:56;21.90;92.10
30336;DHT22;17142;47.990;7.846;2023-08-31T09:44:22;22.10;92.40
30336;DHT22;17142;47.990;7.846;2023-08-31T09:46:48;22.20;92.30
30336;DHT22;17142;47.990;7.846;2023-08-31T09:49:16;22.00;92.80
30336;DHT22;17142;47.990;7.846;2023-08-31T09:51:44;21.80;92.40
30336;DHT22;17142;47.990;7.846;2023-08-31T09:54:15;21.80;93.30
30336;DHT22;17142;47.990;7.846;2023-08-31T09:56:45;21.80;92.80
30336;DHT22;17142;47.990;7.846;2023-08-31T09:59:12;21.60;93.10
30336;DHT22;17142;47.990;7.846;2023-08-31T10:01:42;21.50;91.80
30336;DHT22;17142;47.990;7.846;2023-08-31T10:04:08;21.60;92.70
30336;DHT22;17142;47.990;7.846;2023-08-31T10:06:41;21.80;93.70
30336;DHT22;17142;47.990;7.846;2023-08-31T10:09:07;21.90;93.10
30336;DHT22;17142;47.990;7.846;2023-08-31T10:11:35;21.80;91.90
30336;DHT22;17142;47.990;7.846;2023-08-31T10:14:03;21.80;92.90
30336;DHT22;17142;47.990;7.846;2023-08-31T10:16:30;22.00;93.60
30336;DHT22;17142;47.990;7.846;2023-08-31T10:18:56;21.70;94.00
30336;DHT22;17142;47.990;7.846;2023-08-31T10:21:22;21.80;94.70
30336;DHT22;17142;47.990;7.846;2023-08-31T10:23:49;22.00;94.20
30336;DHT22;17142;47.990;7.846;2023-08-31T10:26:31;21.80;95.00
30336;DHT22;17142;47.990;7.846;2023-08-31T10:28:59;21.60;93.20
30336;DHT22;17142;47.990;7.846;2023-08-31T10:31:33;21.60;93.60
30336;DHT22;17142;47.990;7.846;2023-08-31T10:34:00;21.60;94.30
30336;DHT22;17142;47.990;7.846;2023-08-31T10:36:44;22.00;93.20
30336;DHT22;17142;47.990;7.846;2023-08-31T10:39:16;22.30;93.00
30336;DHT22;17142;47.990;7.846;2023-08-31T10:41:55;22.60;92.30
30336;DHT22;17142;47.990;7.846;2023-08-31T10:44:27;22.60;92.00
30336;DHT22;17142;47.990;7.846;2023-08-31T10:47:00;22.50;91.50
30336;DHT22;17142;47.990;7.846;2023-08-31T10:49:25;22.10;91.20
30336;DHT22;17142;47.990;7.846;2023-08-31T10:54:24;21.50;92.60
30336;DHT22;17142;47.990;7.846;2023-08-31T11:02:38;21.60;93.00
30336;DHT22;17142;47.990;7.846;2023-08-31T11:05:15;21.70;92.00
30336;DHT22;17142;47.990;7.846;2023-08-31T11:07:48;21.70;91.90
30336;DHT22;17142;47.990;7.846;2023-08-31T11:10:16;21.70;91.90
30336;DHT22;17142;47.990;7.846;2023-08-31T11:12:44;21.50;92.00
30336;DHT22;17142;47.990;7.846;2023-08-31T11:15:15;21.40;91.90
30336;DHT22;17142;47.990;7.846;2023-08-31T11:17:41;21.40;91.30
30336;DHT22;17142;47.990;7.846;2023-08-31T11:20:09;21.40;91.80
30336;DHT22;17142;47.990;7.846;2023-08-31T11:22:41;21.50;91.40
30336;DHT22;17142;47.990;7.846;2023-08-31T11:25:09;21.70;91.00
30336;DHT22;17142;47.990;7.846;2023-08-31T11:27:36;22.10;90.50
30336;DHT22;17142;47.990;7.846;2023-08-31T11:30:03;22.10;90.70
30336;DHT22;17142;47.990;7.846;2023-08-31T11:32:29;22.20;90.10
30336;DHT22;17142;47.990;7.846;2023-08-31T11:34:55;22.00;90.30
30336;DHT22;17142;47.990;7.846;2023-08-31T11:37:21;22.40;90.50
30336;DHT22;17142;47.990;7.846;2023-08-31T11:39:49;22.80;89.00
30336;DHT22;17142;47.990;7.846;2023-08-31T11:42:16;23.00;89.60
30336;DHT22;17142;47.990;7.846;2023-08-31T11:44:45;23.30;90.10
30336;DHT22;17142;47.990;7.846;2023-08-31T11:47:12;23.20;88.20
30336;DHT22;17142;47.990;7.846;2023-08-31T11:49:39;23.30;87.60
30336;DHT22;17142;47.990;7.846;2023-08-31T11:52:06;23.50;88.00
30336;DHT22;17142;47.990;7.846;2023-08-31T11:54:31;23.60;87.30
30336;DHT22;17142;47.990;7.846;2023-08-31T11:56:59;23.30;86.60
30336;DHT22;17142;47.990;7.846;2023-08-31T11:59:24;23.50;84.70
30336;DHT22;17142;47.990;7.846;2023-08-31T12:01:50;23.40;85.20
30336;DHT22;17142;47.990;7.846;2023-08-31T12:04:22;23.50;84.10
30336;DHT22;17142;47.990;7.846;2023-08-31T12:06:50;23.50;85.90
30336;DHT22;17142;47.990;7.846;2023-08-31T12:09:17;23.30;85.50
30336;DHT22;17142;47.990;7.846;2023-08-31T12:11:49;23.50;85.70
30336;DHT22;17142;47.990;7.846;2023-08-31T12:14:22;23.40;85.00
30336;DHT22;17142;47.990;7.846;2023-08-31T12:16:52;23.50;84.90
30336;DHT22;17142;47.990;7.846;2023-08-31T12:19:20;23.40;83.90
30336;DHT22;17142;47.990;7.846;2023-08-31T12:21:46;23.40;81.50
30336;DHT22;17142;47.990;7.846;2023-08-31T12:24:12;23.20;81.90
30336;DHT22;17142;47.990;7.846;2023-08-31T12:26:41;23.30;84.20
30336;DHT22;17142;47.990;7.846;2023-08-31T12:29:06;23.50;83.00
30336;DHT22;17142;47.990;7.846;2023-08-31T12:31:35;23.90;80.40
30336;DHT22;17142;47.990;7.846;2023-08-31T12:34:01;24.20;78.50
30336;DHT22;17142;47.990;7.846;2023-08-31T12:36:30;24.40;77.50
30336;DHT22;17142;47.990;7.846;2023-08-31T12:38:56;23.90;76.20
30336;DHT22;17142;47.990;7.846;2023-08-31T12:41:24;23.40;77.50
30336;DHT22;17142;47.990;7.846;2023-08-31T12:43:52;23.10;78.60
30336;DHT22;17142;47.990;7.846;2023-08-31T12:46:19;23.00;80.70
30336;DHT22;17142;47.990;7.846;2023-08-31T12:48:45;23.00;82.30
30336;DHT22;17142;47.990;7.846;2023-08-31T12:51:11;23.10;81.50
30336;DHT22;17142;47.990;7.846;2023-08-31T12:53:39;23.00;82.10
30336;DHT22;17142;47.990;7.846;2023-08-31T12:56:05;22.90;81.70
30336;DHT22;17142;47.990;7.846;2023-08-31T12:58:32;23.10;79.50
30336;DHT22;17142;47.990;7.846;2023-08-31T13:01:02;23.20;79.30
30336;DHT22;17142;47.990;7.846;2023-08-31T13:03:27;23.00;79.80
30336;DHT22;17142;47.990;7.846;2023-08-31T13:05:53;23.00;78.70
30336;DHT22;17142;47.990;7.846;2023-08-31T13:08:19;23.10;78.70
30336;DHT22;17142;47.990;7.846;2023-08-31T13:10:51;23.00;80.80
30336;DHT22;17142;47.990;7.846;2023-08-31T13:13:18;23.10;79.30
30336;DHT22;17142;47.990;7.846;2023-08-31T13:15:49;23.30;80.50
30336;DHT22;17142;47.990;7.846;2023-08-31T13:18:15;23.40;79.90
30336;DHT22;17142;47.990;7.846;2023-08-31T13:20:40;23.70;80.20
30336;DHT22;17142;47.990;7.846;2023-08-31T13:23:07;23.80;80.40
30336;DHT22;17142;47.990;7.846;2023-08-31T13:25:33;23.70;81.50
30336;DHT22;17142;47.990;7.846;2023-08-31T13:28:01;23.50;80.30
30336;DHT22;17142;47.990;7.846;2023-08-31T13:30:26;23.50;80.40
30336;DHT22;17142;47.990;7.846;2023-08-31T13:32:52;23.30;80.30
30336;DHT22;17142;47.990;7.846;2023-08-31T13:35:18;23.30;80.10
30336;DHT22;17142;47.990;7.846;2023-08-31T13:37:43;23.30;81.40
30336;DHT22;17142;47.990;7.846;2023-08-31T13:40:09;23.30;81.00
30336;DHT22;17142;47.990;7.846;2023-08-31T13:42:43;23.30;81.10
30336;DHT22;17142;47.990;7.846;2023-08-31T13:45:14;23.50;81.10
30336;DHT22;17142;47.990;7.846;2023-08-31T13:47:42;23.30;81.40
30336;DHT22;17142;47.990;7.846;2023-08-31T13:50:12;23.00;82.30
30336;DHT22;17142;47.990;7.846;2023-08-31T13:52:38;23.20;82.40
30336;DHT22;17142;47.990;7.846;2023-08-31T13:55:04;23.10;80.50
30336;DHT22;17142;47.990;7.846;2023-08-31T13:57:30;23.20;81.70
30336;DHT22;17142;47.990;7.846;2023-08-31T13:59:58;23.20;80.80
30336;DHT22;17142;47.990;7.846;2023-08-31T14:02:24;23.30;80.80
30336;DHT22;17142;47.990;7.846;2023-08-31T14:04:49;23.30;81.70
30336;DHT22;17142;47.990;7.846;2023-08-31T14:07:15;23.10;80.50
30336;DHT22;17142;47.990;7.846;2023-08-31T14:09:40;23.00;79.80
30336;DHT22;17142;47.990;7.846;2023-08-31T14:12:08;23.20;80.90
30336;DHT22;17142;47.990;7.846;2023-08-31T14:14:38;23.40;80.60
30336;DHT22;17142;47.990;7.846;2023-08-31T14:17:06;23.50;80.20
30336;DHT22;17142;47.990;7.846;2023-08-31T14:19:35;23.70;79.20
30336;DHT22;17142;47.990;7.846;2023-08-31T14:22:01;23.60;78.60
30336;DHT22;17142;47.990;7.846;2023-08-31T14:24:29;23.60;78.70
30336;DHT22;17142;47.990;7.846;2023-08-31T14:26:54;23.70;78.70
30336;DHT22;17142;47.990;7.846;2023-08-31T14:29:23;23.50;77.70
30336;DHT22;17142;47.990;7.846;2023-08-31T14:31:48;23.30;79.40
30336;DHT22;17142;47.990;7.846;2023-08-31T14:34:14;23.20;79.00
30336;DHT22;17142;47.990;7.846;2023-08-31T14:36:40;23.30;80.40
30336;DHT22;17142;47.990;7.846;2023-08-31T14:39:05;23.00;80.10
30336;DHT22;17142;47.990;7.846;2023-08-31T14:41:33;23.10;78.80
30336;DHT22;17142;47.990;7.846;2023-08-31T14:43:59;23.30;77.90
30336;DHT22;17142;47.990;7.846;2023-08-31T14:46:25;23.10;76.80
30336;DHT22;17142;47.990;7.846;2023-08-31T14:48:50;23.20;77.60
30336;DHT22;17142;47.990;7.846;2023-08-31T14:51:16;23.30;77.80
30336;DHT22;17142;47.990;7.846;2023-08-31T14:53:42;23.30;76.60
30336;DHT22;17142;47.990;7.846;2023-08-31T14:56:08;23.50;76.90
30336;DHT22;17142;47.990;7.846;2023-08-31T14:58:36;23.70;78.00
30336;DHT22;17142;47.990;7.846;2023-08-31T15:01:02;23.70;78.20
30336;DHT22;17142;47.990;7.846;2023-08-31T15:03:27;23.70;77.10
30336;DHT22;17142;47.990;7.846;2023-08-31T15:05:55;24.00;80.10
30336;DHT22;17142;47.990;7.846;2023-08-31T15:08:34;23.80;79.10
30336;DHT22;17142;47.990;7.846;2023-08-31T15:11:01;23.90;80.60
30336;DHT22;17142;47.990;7.846;2023-08-31T15:13:27;23.60;80.90
30336;DHT22;17142;47.990;7.846;2023-08-31T15:15:55;23.60;79.50
30336;DHT22;17142;47.990;7.846;2023-08-31T15:18:21;23.40;77.00
30336;DHT22;17142;47.990;7.846;2023-08-31T15:20:50;23.40;77.40
30336;DHT22;17142;47.990;7.846;2023-08-31T15:23:15;23.20;78.10
30336;DHT22;17142;47.990;7.846;2023-08-31T15:25:43;23.20;77.10
30336;DHT22;17142;47.990;7.846;2023-08-31T15:28:08;23.00;77.80
30336;DHT22;17142;47.990;7.846;2023-08-31T15:30:34;22.90;77.20
30336;DHT22;17142;47.990;7.846;2023-08-31T15:33:06;22.70;78.40
30336;DHT22;17142;47.990;7.846;2023-08-31T15:35:32;22.70;80.90
30336;DHT22;17142;47.990;7.846;2023-08-31T15:38:00;22.40;77.90
30336;DHT22;17142;47.990;7.846;2023-08-31T15:40:29;22.20;79.00
30336;DHT22;17142;47.990;7.846;2023-08-31T15:42:54;22.20;78.80
30336;DHT22;17142;47.990;7.846;2023-08-31T15:45:20;22.10;78.40